Aikaterini — 3FCJ2 — position and weather

sailwx.info

Track history (hours):
 
Tides and Currents Weather Stations Pressure Air Temp Water Temp Dewpoint Dewpoint Depression Visibility Wind Speed Wind Dir Waves Ship Positions

Aikaterini

Last reported at 2017-Dec-16 08:58 UTC. Time now 2017-Dec-16 09:26 UTC.
Position N 44°03' E 039°05'.

Length 183 m; draft 7.1 m.

Type: Ship. MMSI: 355947000.

Date/timePositionNaut miles runAvg speedWind from/ knotsBaromVisibWave heightAir tempDewpointWater temp
2017-Dec-16 08:58N 44°03' E 039°05'0 0.1
2017-Dec-16 08:28N 44°03' E 039°05'0 0.1
2017-Dec-16 07:58N 44°03' E 039°05'0 0.0
2017-Dec-16 07:28N 44°03' E 039°05'0 0.0
2017-Dec-16 06:58N 44°03' E 039°05'0 0.0
2017-Dec-16 06:28N 44°03' E 039°05'0 0.1
2017-Dec-16 05:58N 44°03' E 039°05'0 0.8
2017-Dec-16 05:30N 44°03' E 039°05'2 4.6
2017-Dec-16 05:00N 44°02' E 039°02'4 8.0
2017-Dec-16 04:30N 44°01' E 038°56'510.7
2017-Dec-16 04:00N 43°59' E 038°49'2212.0
2017-Dec-16 02:08N 43°51' E 038°20'212.4
2017-Dec-16 02:00N 43°51' E 038°18'712.3
2017-Dec-16 01:27N 43°48' E 038°09'712.3
2017-Dec-16 00:51N 43°45' E 037°60'412.3
2017-Dec-16 00:30N 43°44' E 037°54'612.3
2017-Dec-16 00:00N 43°41' E 037°46'612.3
2017-Dec-15 23:30N 43°39' E 037°39'41612.5
2017-Dec-14 14:13N 40°59' E 028°60'3 4.4
2017-Dec-14 13:39N 40°57' E 028°59'  
2017-Dec-12 06:44N 37°34' E 025°52'312.9
2017-Dec-12 06:30N 37°31' E 025°53'612.7
2017-Dec-12 06:00N 37°24' E 025°54'612.6
2017-Dec-12 05:30N 37°19' E 025°58'612.5
2017-Dec-12 05:00N 37°13' E 026°00'612.5
2017-Dec-12 04:30N 37°07' E 026°03'612.4
2017-Dec-12 04:00N 37°01' E 026°06'912.4
2017-Dec-12 03:18N 36°55' E 026°14'412.5
2017-Dec-12 03:00N 36°53' E 026°18'612.7
2017-Dec-12 02:30N 36°49' E 026°24'713.3
2017-Dec-12 02:00N 36°45' E 026°30'713.2
2017-Dec-12 01:31N 36°40' E 026°35'713.1
2017-Dec-12 01:00N 36°34' E 026°41'  
Track history (hours):
 
Tides and Currents Weather Stations Pressure Air Temp Water Temp Dewpoint Dewpoint Depression Visibility Wind Speed Wind Dir Waves Ship Positions

Aikaterini

Last reported at 2017-Dec-16 08:58 UTC. Time now 2017-Dec-16 09:26 UTC.
Position N 44°03' E 039°05'.

Length 183 m; draft 7.1 m.

Type: Ship. MMSI: 355947000.

Date/timePositionNaut miles runAvg speedWind from/ knotsBaromVisibWave heightAir tempDewpointWater temp
2017-Dec-16 08:58N 44°03' E 039°05'0 0.1
2017-Dec-16 08:28N 44°03' E 039°05'0 0.1
2017-Dec-16 07:58N 44°03' E 039°05'0 0.0
2017-Dec-16 07:28N 44°03' E 039°05'0 0.0
2017-Dec-16 06:58N 44°03' E 039°05'0 0.0
2017-Dec-16 06:28N 44°03' E 039°05'0 0.1
2017-Dec-16 05:58N 44°03' E 039°05'0 0.8
2017-Dec-16 05:30N 44°03' E 039°05'2 4.6
2017-Dec-16 05:00N 44°02' E 039°02'4 8.0
2017-Dec-16 04:30N 44°01' E 038°56'510.7
2017-Dec-16 04:00N 43°59' E 038°49'2212.0
2017-Dec-16 02:08N 43°51' E 038°20'212.4
2017-Dec-16 02:00N 43°51' E 038°18'712.3
2017-Dec-16 01:27N 43°48' E 038°09'712.3
2017-Dec-16 00:51N 43°45' E 037°60'412.3
2017-Dec-16 00:30N 43°44' E 037°54'612.3
2017-Dec-16 00:00N 43°41' E 037°46'612.3
2017-Dec-15 23:30N 43°39' E 037°39'41612.5
2017-Dec-14 14:13N 40°59' E 028°60'3 4.4
2017-Dec-14 13:39N 40°57' E 028°59'  
2017-Dec-12 06:44N 37°34' E 025°52'312.9
2017-Dec-12 06:30N 37°31' E 025°53'612.7
2017-Dec-12 06:00N 37°24' E 025°54'612.6
2017-Dec-12 05:30N 37°19' E 025°58'612.5
2017-Dec-12 05:00N 37°13' E 026°00'612.5
2017-Dec-12 04:30N 37°07' E 026°03'612.4
2017-Dec-12 04:00N 37°01' E 026°06'912.4
2017-Dec-12 03:18N 36°55' E 026°14'412.5
2017-Dec-12 03:00N 36°53' E 026°18'612.7
2017-Dec-12 02:30N 36°49' E 026°24'713.3
2017-Dec-12 02:00N 36°45' E 026°30'713.2
2017-Dec-12 01:31N 36°40' E 026°35'713.1
2017-Dec-12 01:00N 36°34' E 026°41'  

Dump ship's entire track history